sensor_id;sensor_type;location;lat;lon;timestamp;P1;durP1;ratioP1;P2;durP2;ratioP2
79670;SDS011;69137;50.878;8.050;2023-11-18T00:02:19;12.52;;;6.70;;
79670;SDS011;69137;50.878;8.050;2023-11-18T00:04:44;62.97;;;9.10;;
79670;SDS011;69137;50.878;8.050;2023-11-18T00:07:09;20.33;;;7.38;;
79670;SDS011;69137;50.878;8.050;2023-11-18T00:09:35;45.42;;;8.57;;
79670;SDS011;69137;50.878;8.050;2023-11-18T00:12:01;19.15;;;7.13;;
79670;SDS011;69137;50.878;8.050;2023-11-18T00:14:29;20.10;;;6.80;;
79670;SDS011;69137;50.878;8.050;2023-11-18T00:16:54;34.47;;;8.25;;
79670;SDS011;69137;50.878;8.050;2023-11-18T00:19:19;21.63;;;7.85;;
79670;SDS011;69137;50.878;8.050;2023-11-18T00:21:45;27.98;;;8.18;;
79670;SDS011;69137;50.878;8.050;2023-11-18T00:24:10;47.28;;;9.23;;
79670;SDS011;69137;50.878;8.050;2023-11-18T00:26:36;19.27;;;7.18;;
79670;SDS011;69137;50.878;8.050;2023-11-18T00:29:01;16.52;;;8.25;;
79670;SDS011;69137;50.878;8.050;2023-11-18T00:31:26;25.20;;;7.18;;
79670;SDS011;69137;50.878;8.050;2023-11-18T00:33:52;24.23;;;6.45;;
79670;SDS011;69137;50.878;8.050;2023-11-18T00:36:17;28.77;;;7.35;;
79670;SDS011;69137;50.878;8.050;2023-11-18T00:38:43;23.75;;;7.03;;
79670;SDS011;69137;50.878;8.050;2023-11-18T00:41:08;29.17;;;7.03;;
79670;SDS011;69137;50.878;8.050;2023-11-18T00:43:34;37.13;;;6.95;;
79670;SDS011;69137;50.878;8.050;2023-11-18T00:45:59;16.13;;;5.75;;
79670;SDS011;69137;50.878;8.050;2023-11-18T00:48:26;18.70;;;6.40;;
79670;SDS011;69137;50.878;8.050;2023-11-18T00:50:52;21.15;;;6.40;;
79670;SDS011;69137;50.878;8.050;2023-11-18T00:53:17;18.02;;;6.82;;
79670;SDS011;69137;50.878;8.050;2023-11-18T00:55:43;22.77;;;6.43;;
79670;SDS011;69137;50.878;8.050;2023-11-18T00:58:09;43.53;;;7.80;;
79670;SDS011;69137;50.878;8.050;2023-11-18T01:00:34;29.55;;;7.93;;
79670;SDS011;69137;50.878;8.050;2023-11-18T01:03:01;19.33;;;6.70;;
79670;SDS011;69137;50.878;8.050;2023-11-18T01:05:27;16.98;;;7.03;;
79670;SDS011;69137;50.878;8.050;2023-11-18T01:07:52;20.88;;;7.78;;
79670;SDS011;69137;50.878;8.050;2023-11-18T01:10:18;15.48;;;7.15;;
79670;SDS011;69137;50.878;8.050;2023-11-18T01:12:44;29.25;;;7.97;;
79670;SDS011;69137;50.878;8.050;2023-11-18T01:15:10;15.73;;;7.03;;
79670;SDS011;69137;50.878;8.050;2023-11-18T01:17:36;23.90;;;6.47;;
79670;SDS011;69137;50.878;8.050;2023-11-18T01:20:01;19.02;;;6.63;;
79670;SDS011;69137;50.878;8.050;2023-11-18T01:22:33;24.20;;;6.95;;
79670;SDS011;69137;50.878;8.050;2023-11-18T01:24:59;29.08;;;7.15;;
79670;SDS011;69137;50.878;8.050;2023-11-18T01:27:26;31.83;;;7.78;;
79670;SDS011;69137;50.878;8.050;2023-11-18T01:29:51;13.38;;;6.28;;
79670;SDS011;69137;50.878;8.050;2023-11-18T01:32:17;14.55;;;5.97;;
79670;SDS011;69137;50.878;8.050;2023-11-18T01:34:42;28.00;;;7.88;;
79670;SDS011;69137;50.878;8.050;2023-11-18T01:37:09;23.50;;;7.25;;
79670;SDS011;69137;50.878;8.050;2023-11-18T01:39:35;25.27;;;6.55;;
79670;SDS011;69137;50.878;8.050;2023-11-18T01:42:01;25.65;;;7.10;;
79670;SDS011;69137;50.878;8.050;2023-11-18T01:44:29;22.35;;;7.03;;
79670;SDS011;69137;50.878;8.050;2023-11-18T01:46:56;16.52;;;6.55;;
79670;SDS011;69137;50.878;8.050;2023-11-18T01:49:22;28.42;;;6.07;;
79670;SDS011;69137;50.878;8.050;2023-11-18T01:51:49;31.27;;;5.70;;
79670;SDS011;69137;50.878;8.050;2023-11-18T01:54:19;45.38;;;6.10;;
79670;SDS011;69137;50.878;8.050;2023-11-18T01:56:46;28.90;;;6.95;;
79670;SDS011;69137;50.878;8.050;2023-11-18T01:59:13;12.98;;;5.90;;
79670;SDS011;69137;50.878;8.050;2023-11-18T02:01:48;19.58;;;6.15;;
79670;SDS011;69137;50.878;8.050;2023-11-18T02:04:19;11.75;;;5.13;;
79670;SDS011;69137;50.878;8.050;2023-11-18T02:06:45;17.38;;;5.68;;
79670;SDS011;69137;50.878;8.050;2023-11-18T02:09:13;27.48;;;5.93;;
79670;SDS011;69137;50.878;8.050;2023-11-18T02:11:45;22.20;;;6.88;;
79670;SDS011;69137;50.878;8.050;2023-11-18T02:14:16;13.27;;;5.78;;
79670;SDS011;69137;50.878;8.050;2023-11-18T02:16:45;11.75;;;5.72;;
79670;SDS011;69137;50.878;8.050;2023-11-18T02:19:19;12.85;;;6.22;;
79670;SDS011;69137;50.878;8.050;2023-11-18T02:21:49;11.05;;;5.57;;
79670;SDS011;69137;50.878;8.050;2023-11-18T02:24:28;12.40;;;5.32;;
79670;SDS011;69137;50.878;8.050;2023-11-18T02:26:59;12.57;;;5.47;;
79670;SDS011;69137;50.878;8.050;2023-11-18T02:29:26;11.05;;;5.50;;
79670;SDS011;69137;50.878;8.050;2023-11-18T02:32:03;20.05;;;4.85;;
79670;SDS011;69137;50.878;8.050;2023-11-18T02:34:33;8.07;;;4.20;;
79670;SDS011;69137;50.878;8.050;2023-11-18T02:37:03;9.80;;;4.30;;
79670;SDS011;69137;50.878;8.050;2023-11-18T02:39:39;10.30;;;4.85;;
79670;SDS011;69137;50.878;8.050;2023-11-18T02:42:07;12.70;;;4.82;;
79670;SDS011;69137;50.878;8.050;2023-11-18T02:44:35;11.88;;;4.72;;
79670;SDS011;69137;50.878;8.050;2023-11-18T02:47:02;10.15;;;4.65;;
79670;SDS011;69137;50.878;8.050;2023-11-18T02:49:30;11.27;;;4.78;;
79670;SDS011;69137;50.878;8.050;2023-11-18T02:51:56;10.55;;;4.95;;
79670;SDS011;69137;50.878;8.050;2023-11-18T02:54:21;14.65;;;5.18;;
79670;SDS011;69137;50.878;8.050;2023-11-18T02:56:47;14.90;;;4.75;;
79670;SDS011;69137;50.878;8.050;2023-11-18T02:59:13;13.05;;;5.03;;
79670;SDS011;69137;50.878;8.050;2023-11-18T03:01:38;10.40;;;5.05;;
79670;SDS011;69137;50.878;8.050;2023-11-18T03:04:04;8.57;;;4.90;;
79670;SDS011;69137;50.878;8.050;2023-11-18T03:06:30;11.65;;;4.55;;
79670;SDS011;69137;50.878;8.050;2023-11-18T03:08:57;10.13;;;4.85;;
79670;SDS011;69137;50.878;8.050;2023-11-18T03:11:22;10.27;;;4.72;;
79670;SDS011;69137;50.878;8.050;2023-11-18T03:13:48;14.57;;;6.13;;
79670;SDS011;69137;50.878;8.050;2023-11-18T03:16:13;9.70;;;5.18;;
79670;SDS011;69137;50.878;8.050;2023-11-18T03:18:39;9.38;;;4.55;;
79670;SDS011;69137;50.878;8.050;2023-11-18T03:23:37;8.55;;;4.00;;
79670;SDS011;69137;50.878;8.050;2023-11-18T03:26:03;19.25;;;4.80;;
79670;SDS011;69137;50.878;8.050;2023-11-18T03:28:30;27.50;;;5.63;;
79670;SDS011;69137;50.878;8.050;2023-11-18T03:30:56;13.88;;;5.75;;
79670;SDS011;69137;50.878;8.050;2023-11-18T03:33:22;63.92;;;6.82;;
79670;SDS011;69137;50.878;8.050;2023-11-18T03:35:48;39.58;;;6.18;;
79670;SDS011;69137;50.878;8.050;2023-11-18T03:38:13;10.05;;;4.70;;
79670;SDS011;69137;50.878;8.050;2023-11-18T03:40:40;29.88;;;5.82;;
79670;SDS011;69137;50.878;8.050;2023-11-18T03:43:06;25.50;;;6.50;;
79670;SDS011;69137;50.878;8.050;2023-11-18T03:45:32;25.70;;;5.32;;
79670;SDS011;69137;50.878;8.050;2023-11-18T03:47:58;17.80;;;5.85;;
79670;SDS011;69137;50.878;8.050;2023-11-18T03:50:24;12.13;;;5.53;;
79670;SDS011;69137;50.878;8.050;2023-11-18T03:52:50;13.70;;;5.10;;
79670;SDS011;69137;50.878;8.050;2023-11-18T03:55:15;10.98;;;4.85;;
79670;SDS011;69137;50.878;8.050;2023-11-18T03:57:40;18.08;;;4.80;;
79670;SDS011;69137;50.878;8.050;2023-11-18T04:00:06;9.48;;;4.97;;
79670;SDS011;69137;50.878;8.050;2023-11-18T04:02:32;11.85;;;4.80;;
79670;SDS011;69137;50.878;8.050;2023-11-18T04:05:00;6.93;;;4.10;;
79670;SDS011;69137;50.878;8.050;2023-11-18T04:07:26;11.23;;;5.22;;
79670;SDS011;69137;50.878;8.050;2023-11-18T04:09:53;9.82;;;4.63;;
79670;SDS011;69137;50.878;8.050;2023-11-18T04:12:19;8.35;;;4.50;;
79670;SDS011;69137;50.878;8.050;2023-11-18T04:14:44;9.00;;;4.38;;
79670;SDS011;69137;50.878;8.050;2023-11-18T04:17:09;9.93;;;4.65;;
79670;SDS011;69137;50.878;8.050;2023-11-18T04:19:35;7.75;;;4.20;;
79670;SDS011;69137;50.878;8.050;2023-11-18T04:22:00;10.27;;;4.55;;
79670;SDS011;69137;50.878;8.050;2023-11-18T04:24:26;12.52;;;5.20;;
79670;SDS011;69137;50.878;8.050;2023-11-18T04:26:51;9.32;;;4.80;;
79670;SDS011;69137;50.878;8.050;2023-11-18T04:29:17;8.57;;;3.85;;
79670;SDS011;69137;50.878;8.050;2023-11-18T04:31:43;10.48;;;5.30;;
79670;SDS011;69137;50.878;8.050;2023-11-18T04:34:08;9.82;;;4.82;;
79670;SDS011;69137;50.878;8.050;2023-11-18T04:36:34;7.90;;;4.35;;
79670;SDS011;69137;50.878;8.050;2023-11-18T04:38:59;10.43;;;5.00;;
79670;SDS011;69137;50.878;8.050;2023-11-18T04:41:25;8.98;;;4.88;;
79670;SDS011;69137;50.878;8.050;2023-11-18T04:43:51;11.63;;;5.18;;
79670;SDS011;69137;50.878;8.050;2023-11-18T04:46:16;10.50;;;4.85;;
79670;SDS011;69137;50.878;8.050;2023-11-18T04:48:42;10.35;;;4.97;;
79670;SDS011;69137;50.878;8.050;2023-11-18T04:51:08;12.10;;;5.80;;
79670;SDS011;69137;50.878;8.050;2023-11-18T04:53:33;13.68;;;5.75;;
79670;SDS011;69137;50.878;8.050;2023-11-18T04:55:59;10.15;;;5.60;;
79670;SDS011;69137;50.878;8.050;2023-11-18T04:58:24;9.23;;;5.13;;
79670;SDS011;69137;50.878;8.050;2023-11-18T05:00:50;10.43;;;4.43;;
79670;SDS011;69137;50.878;8.050;2023-11-18T05:03:16;11.75;;;5.40;;
79670;SDS011;69137;50.878;8.050;2023-11-18T05:05:42;9.05;;;4.90;;
79670;SDS011;69137;50.878;8.050;2023-11-18T05:08:14;10.68;;;4.93;;
79670;SDS011;69137;50.878;8.050;2023-11-18T05:10:46;12.38;;;5.03;;
79670;SDS011;69137;50.878;8.050;2023-11-18T05:13:12;8.50;;;4.70;;
79670;SDS011;69137;50.878;8.050;2023-11-18T05:15:40;8.07;;;4.63;;
79670;SDS011;69137;50.878;8.050;2023-11-18T05:18:05;7.90;;;4.60;;
79670;SDS011;69137;50.878;8.050;2023-11-18T05:20:36;11.40;;;5.13;;
79670;SDS011;69137;50.878;8.050;2023-11-18T05:23:02;10.85;;;5.53;;
79670;SDS011;69137;50.878;8.050;2023-11-18T05:25:28;8.48;;;4.65;;
79670;SDS011;69137;50.878;8.050;2023-11-18T05:27:54;12.10;;;4.97;;
79670;SDS011;69137;50.878;8.050;2023-11-18T05:30:19;10.00;;;4.13;;
79670;SDS011;69137;50.878;8.050;2023-11-18T05:32:45;7.72;;;4.32;;
79670;SDS011;69137;50.878;8.050;2023-11-18T05:35:10;6.68;;;4.35;;
79670;SDS011;69137;50.878;8.050;2023-11-18T05:37:37;8.48;;;4.75;;
79670;SDS011;69137;50.878;8.050;2023-11-18T05:40:06;10.27;;;5.13;;
79670;SDS011;69137;50.878;8.050;2023-11-18T05:42:35;10.18;;;5.85;;
79670;SDS011;69137;50.878;8.050;2023-11-18T05:45:02;7.75;;;4.28;;
79670;SDS011;69137;50.878;8.050;2023-11-18T05:47:32;9.88;;;5.78;;
79670;SDS011;69137;50.878;8.050;2023-11-18T05:49:59;11.50;;;4.95;;
79670;SDS011;69137;50.878;8.050;2023-11-18T05:52:24;9.95;;;5.70;;
79670;SDS011;69137;50.878;8.050;2023-11-18T05:54:50;10.60;;;6.03;;
79670;SDS011;69137;50.878;8.050;2023-11-18T05:57:15;9.35;;;5.05;;
79670;SDS011;69137;50.878;8.050;2023-11-18T05:59:41;10.38;;;5.45;;
79670;SDS011;69137;50.878;8.050;2023-11-18T06:02:07;8.38;;;4.47;;
79670;SDS011;69137;50.878;8.050;2023-11-18T06:04:33;8.15;;;4.47;;
79670;SDS011;69137;50.878;8.050;2023-11-18T06:06:59;10.57;;;5.35;;
79670;SDS011;69137;50.878;8.050;2023-11-18T06:09:24;8.77;;;4.68;;
79670;SDS011;69137;50.878;8.050;2023-11-18T06:11:51;12.13;;;5.80;;
79670;SDS011;69137;50.878;8.050;2023-11-18T06:14:18;8.95;;;4.40;;
79670;SDS011;69137;50.878;8.050;2023-11-18T06:16:44;11.00;;;5.25;;
79670;SDS011;69137;50.878;8.050;2023-11-18T06:19:10;8.70;;;4.97;;
79670;SDS011;69137;50.878;8.050;2023-11-18T06:21:35;9.57;;;4.80;;
79670;SDS011;69137;50.878;8.050;2023-11-18T06:24:02;7.88;;;4.63;;
79670;SDS011;69137;50.878;8.050;2023-11-18T06:26:31;13.05;;;5.50;;
79670;SDS011;69137;50.878;8.050;2023-11-18T06:28:57;8.93;;;4.43;;
79670;SDS011;69137;50.878;8.050;2023-11-18T06:31:23;9.10;;;5.30;;
79670;SDS011;69137;50.878;8.050;2023-11-18T06:33:49;9.10;;;5.05;;
79670;SDS011;69137;50.878;8.050;2023-11-18T06:38:44;8.73;;;5.32;;
79670;SDS011;69137;50.878;8.050;2023-11-18T06:41:10;8.40;;;5.38;;
79670;SDS011;69137;50.878;8.050;2023-11-18T06:43:38;9.32;;;5.68;;
79670;SDS011;69137;50.878;8.050;2023-11-18T06:46:26;7.97;;;4.75;;
79670;SDS011;69137;50.878;8.050;2023-11-18T06:49:04;11.10;;;5.53;;
79670;SDS011;69137;50.878;8.050;2023-11-18T06:51:32;7.72;;;4.80;;
79670;SDS011;69137;50.878;8.050;2023-11-18T06:54:02;7.95;;;4.97;;
79670;SDS011;69137;50.878;8.050;2023-11-18T06:56:34;10.18;;;5.53;;
79670;SDS011;69137;50.878;8.050;2023-11-18T06:59:06;8.45;;;4.97;;
79670;SDS011;69137;50.878;8.050;2023-11-18T07:01:32;9.23;;;5.03;;
79670;SDS011;69137;50.878;8.050;2023-11-18T07:03:59;11.93;;;5.35;;
79670;SDS011;69137;50.878;8.050;2023-11-18T07:06:24;9.38;;;5.03;;
79670;SDS011;69137;50.878;8.050;2023-11-18T07:08:51;10.27;;;4.93;;
79670;SDS011;69137;50.878;8.050;2023-11-18T07:11:17;10.20;;;5.57;;
79670;SDS011;69137;50.878;8.050;2023-11-18T07:13:44;10.48;;;5.63;;
79670;SDS011;69137;50.878;8.050;2023-11-18T07:16:10;10.23;;;5.22;;
79670;SDS011;69137;50.878;8.050;2023-11-18T07:18:37;9.55;;;5.32;;
79670;SDS011;69137;50.878;8.050;2023-11-18T07:21:06;13.40;;;5.95;;
79670;SDS011;69137;50.878;8.050;2023-11-18T07:23:32;12.80;;;6.78;;
79670;SDS011;69137;50.878;8.050;2023-11-18T07:25:58;12.60;;;6.15;;
79670;SDS011;69137;50.878;8.050;2023-11-18T07:28:23;14.70;;;7.05;;
79670;SDS011;69137;50.878;8.050;2023-11-18T07:30:49;12.10;;;6.45;;
79670;SDS011;69137;50.878;8.050;2023-11-18T07:33:15;9.93;;;5.88;;
79670;SDS011;69137;50.878;8.050;2023-11-18T07:35:41;21.40;;;7.03;;
79670;SDS011;69137;50.878;8.050;2023-11-18T07:38:07;11.15;;;6.05;;
79670;SDS011;69137;50.878;8.050;2023-11-18T07:40:33;15.70;;;6.45;;
79670;SDS011;69137;50.878;8.050;2023-11-18T07:42:59;11.32;;;7.15;;
79670;SDS011;69137;50.878;8.050;2023-11-18T07:45:28;12.63;;;8.00;;
79670;SDS011;69137;50.878;8.050;2023-11-18T07:48:02;10.68;;;6.35;;
79670;SDS011;69137;50.878;8.050;2023-11-18T07:50:31;10.75;;;6.03;;
79670;SDS011;69137;50.878;8.050;2023-11-18T07:52:57;15.13;;;6.53;;
79670;SDS011;69137;50.878;8.050;2023-11-18T07:55:23;10.00;;;5.75;;
79670;SDS011;69137;50.878;8.050;2023-11-18T07:57:48;15.95;;;8.45;;
79670;SDS011;69137;50.878;8.050;2023-11-18T08:00:14;15.32;;;8.68;;
79670;SDS011;69137;50.878;8.050;2023-11-18T08:02:40;12.80;;;7.85;;
79670;SDS011;69137;50.878;8.050;2023-11-18T08:05:05;12.50;;;7.10;;
79670;SDS011;69137;50.878;8.050;2023-11-18T08:07:38;20.00;;;10.02;;
79670;SDS011;69137;50.878;8.050;2023-11-18T08:10:05;13.73;;;7.88;;
79670;SDS011;69137;50.878;8.050;2023-11-18T08:12:31;13.15;;;7.85;;
79670;SDS011;69137;50.878;8.050;2023-11-18T08:14:57;14.07;;;6.75;;
79670;SDS011;69137;50.878;8.050;2023-11-18T08:17:24;9.98;;;6.20;;
79670;SDS011;69137;50.878;8.050;2023-11-18T08:19:52;10.88;;;6.47;;
79670;SDS011;69137;50.878;8.050;2023-11-18T08:22:18;10.27;;;6.72;;
79670;SDS011;69137;50.878;8.050;2023-11-18T08:24:44;9.88;;;6.25;;
79670;SDS011;69137;50.878;8.050;2023-11-18T08:27:11;12.68;;;6.80;;
79670;SDS011;69137;50.878;8.050;2023-11-18T08:29:37;12.98;;;6.13;;
79670;SDS011;69137;50.878;8.050;2023-11-18T08:32:04;13.07;;;6.65;;
79670;SDS011;69137;50.878;8.050;2023-11-18T08:34:31;11.82;;;6.63;;
79670;SDS011;69137;50.878;8.050;2023-11-18T08:36:58;14.68;;;7.05;;
79670;SDS011;69137;50.878;8.050;2023-11-18T08:39:24;9.00;;;5.97;;
79670;SDS011;69137;50.878;8.050;2023-11-18T08:41:51;11.73;;;6.82;;
79670;SDS011;69137;50.878;8.050;2023-11-18T08:44:16;10.60;;;6.20;;
79670;SDS011;69137;50.878;8.050;2023-11-18T08:46:42;9.35;;;5.78;;
79670;SDS011;69137;50.878;8.050;2023-11-18T08:49:08;10.55;;;6.38;;
79670;SDS011;69137;50.878;8.050;2023-11-18T08:51:36;13.05;;;7.15;;
79670;SDS011;69137;50.878;8.050;2023-11-18T08:54:03;10.00;;;5.63;;
79670;SDS011;69137;50.878;8.050;2023-11-18T08:56:47;10.48;;;6.10;;
79670;SDS011;69137;50.878;8.050;2023-11-18T08:59:19;12.55;;;6.57;;
79670;SDS011;69137;50.878;8.050;2023-11-18T09:01:53;13.10;;;6.28;;
79670;SDS011;69137;50.878;8.050;2023-11-18T09:04:27;12.82;;;7.10;;
79670;SDS011;69137;50.878;8.050;2023-11-18T09:06:53;11.18;;;6.00;;
79670;SDS011;69137;50.878;8.050;2023-11-18T09:09:25;9.77;;;5.68;;
79670;SDS011;69137;50.878;8.050;2023-11-18T09:11:54;14.25;;;5.20;;
79670;SDS011;69137;50.878;8.050;2023-11-18T09:14:23;9.38;;;5.18;;
79670;SDS011;69137;50.878;8.050;2023-11-18T09:16:51;8.48;;;4.57;;
79670;SDS011;69137;50.878;8.050;2023-11-18T09:19:17;10.15;;;4.85;;
79670;SDS011;69137;50.878;8.050;2023-11-18T09:21:42;7.10;;;4.22;;
79670;SDS011;69137;50.878;8.050;2023-11-18T09:24:09;7.30;;;4.53;;
79670;SDS011;69137;50.878;8.050;2023-11-18T09:26:37;8.23;;;4.53;;
79670;SDS011;69137;50.878;8.050;2023-11-18T09:29:03;7.28;;;4.68;;
79670;SDS011;69137;50.878;8.050;2023-11-18T09:31:28;9.57;;;4.85;;
79670;SDS011;69137;50.878;8.050;2023-11-18T09:33:54;7.53;;;3.95;;
79670;SDS011;69137;50.878;8.050;2023-11-18T09:36:22;9.43;;;5.40;;
79670;SDS011;69137;50.878;8.050;2023-11-18T09:38:48;6.68;;;4.53;;
79670;SDS011;69137;50.878;8.050;2023-11-18T09:41:14;7.10;;;3.83;;
79670;SDS011;69137;50.878;8.050;2023-11-18T09:43:41;10.10;;;5.30;;
79670;SDS011;69137;50.878;8.050;2023-11-18T09:46:11;7.65;;;5.15;;
79670;SDS011;69137;50.878;8.050;2023-11-18T09:48:44;8.73;;;4.90;;
79670;SDS011;69137;50.878;8.050;2023-11-18T09:51:25;7.88;;;4.95;;
79670;SDS011;69137;50.878;8.050;2023-11-18T09:54:01;8.50;;;4.65;;
79670;SDS011;69137;50.878;8.050;2023-11-18T09:59:11;7.43;;;4.47;;
79670;SDS011;69137;50.878;8.050;2023-11-18T10:01:53;12.05;;;4.88;;
79670;SDS011;69137;50.878;8.050;2023-11-18T10:04:22;7.60;;;4.25;;
79670;SDS011;69137;50.878;8.050;2023-11-18T10:06:52;7.10;;;3.80;;
79670;SDS011;69137;50.878;8.050;2023-11-18T10:09:18;6.60;;;4.10;;
79670;SDS011;69137;50.878;8.050;2023-11-18T10:11:53;6.78;;;4.40;;
79670;SDS011;69137;50.878;8.050;2023-11-18T10:14:26;7.05;;;3.47;;
79670;SDS011;69137;50.878;8.050;2023-11-18T10:16:51;5.55;;;3.42;;
79670;SDS011;69137;50.878;8.050;2023-11-18T10:19:19;7.63;;;4.05;;
79670;SDS011;69137;50.878;8.050;2023-11-18T10:21:44;6.05;;;3.60;;
79670;SDS011;69137;50.878;8.050;2023-11-18T10:24:13;7.65;;;4.25;;
79670;SDS011;69137;50.878;8.050;2023-11-18T10:26:42;6.28;;;3.63;;
79670;SDS011;69137;50.878;8.050;2023-11-18T10:29:10;7.05;;;3.53;;
79670;SDS011;69137;50.878;8.050;2023-11-18T10:31:38;5.35;;;3.67;;
79670;SDS011;69137;50.878;8.050;2023-11-18T10:34:13;7.57;;;4.38;;
79670;SDS011;69137;50.878;8.050;2023-11-18T10:36:58;7.85;;;4.38;;
79670;SDS011;69137;50.878;8.050;2023-11-18T10:39:28;5.25;;;3.30;;
79670;SDS011;69137;50.878;8.050;2023-11-18T10:41:58;7.68;;;3.15;;
79670;SDS011;69137;50.878;8.050;2023-11-18T10:44:24;9.20;;;3.97;;
79670;SDS011;69137;50.878;8.050;2023-11-18T10:46:51;6.85;;;4.25;;
79670;SDS011;69137;50.878;8.050;2023-11-18T10:49:18;7.50;;;3.42;;
79670;SDS011;69137;50.878;8.050;2023-11-18T10:51:45;6.40;;;3.97;;
79670;SDS011;69137;50.878;8.050;2023-11-18T10:54:12;7.68;;;4.22;;
79670;SDS011;69137;50.878;8.050;2023-11-18T10:56:47;7.97;;;4.43;;
79670;SDS011;69137;50.878;8.050;2023-11-18T10:59:14;6.40;;;4.07;;
79670;SDS011;69137;50.878;8.050;2023-11-18T11:01:43;7.85;;;4.43;;
79670;SDS011;69137;50.878;8.050;2023-11-18T11:04:10;8.02;;;4.75;;
79670;SDS011;69137;50.878;8.050;2023-11-18T11:06:45;8.85;;;4.55;;
79670;SDS011;69137;50.878;8.050;2023-11-18T11:09:17;9.73;;;4.88;;
79670;SDS011;69137;50.878;8.050;2023-11-18T11:11:49;13.32;;;4.38;;
79670;SDS011;69137;50.878;8.050;2023-11-18T11:14:32;9.27;;;4.95;;
79670;SDS011;69137;50.878;8.050;2023-11-18T11:17:07;7.90;;;4.82;;
79670;SDS011;69137;50.878;8.050;2023-11-18T11:19:50;10.27;;;5.97;;
79670;SDS011;69137;50.878;8.050;2023-11-18T11:22:24;10.75;;;6.13;;
79670;SDS011;69137;50.878;8.050;2023-11-18T11:25:22;9.57;;;5.10;;
79670;SDS011;69137;50.878;8.050;2023-11-18T11:28:00;11.95;;;5.20;;
79670;SDS011;69137;50.878;8.050;2023-11-18T11:30:29;9.27;;;5.20;;
79670;SDS011;69137;50.878;8.050;2023-11-18T11:33:11;7.32;;;4.05;;
79670;SDS011;69137;50.878;8.050;2023-11-18T11:35:48;7.53;;;4.30;;
79670;SDS011;69137;50.878;8.050;2023-11-18T11:38:17;9.98;;;4.78;;
79670;SDS011;69137;50.878;8.050;2023-11-18T11:40:44;8.02;;;4.82;;
79670;SDS011;69137;50.878;8.050;2023-11-18T11:43:12;11.38;;;5.30;;
79670;SDS011;69137;50.878;8.050;2023-11-18T11:50:48;12.90;;;4.80;;
79670;SDS011;69137;50.878;8.050;2023-11-18T11:53:20;12.43;;;5.50;;
79670;SDS011;69137;50.878;8.050;2023-11-18T11:55:52;9.18;;;5.45;;
79670;SDS011;69137;50.878;8.050;2023-11-18T11:58:28;12.20;;;5.93;;
79670;SDS011;69137;50.878;8.050;2023-11-18T12:00:58;8.80;;;4.65;;
79670;SDS011;69137;50.878;8.050;2023-11-18T12:03:27;9.68;;;4.82;;
79670;SDS011;69137;50.878;8.050;2023-11-18T12:06:01;10.80;;;5.00;;
79670;SDS011;69137;50.878;8.050;2023-11-18T12:08:33;9.35;;;4.63;;
79670;SDS011;69137;50.878;8.050;2023-11-18T12:11:01;9.55;;;4.97;;
79670;SDS011;69137;50.878;8.050;2023-11-18T12:13:27;9.00;;;4.20;;
79670;SDS011;69137;50.878;8.050;2023-11-18T12:15:56;11.63;;;5.75;;
79670;SDS011;69137;50.878;8.050;2023-11-18T12:18:30;14.57;;;5.63;;
79670;SDS011;69137;50.878;8.050;2023-11-18T12:21:02;9.13;;;4.93;;
79670;SDS011;69137;50.878;8.050;2023-11-18T12:23:28;11.80;;;5.55;;
79670;SDS011;69137;50.878;8.050;2023-11-18T12:25:55;12.75;;;6.15;;
79670;SDS011;69137;50.878;8.050;2023-11-18T12:30:53;10.25;;;5.75;;
79670;SDS011;69137;50.878;8.050;2023-11-18T12:33:22;8.90;;;4.78;;
79670;SDS011;69137;50.878;8.050;2023-11-18T12:41:05;10.13;;;4.97;;
79670;SDS011;69137;50.878;8.050;2023-11-18T12:44:01;12.40;;;6.07;;
79670;SDS011;69137;50.878;8.050;2023-11-18T12:46:55;10.57;;;5.30;;
79670;SDS011;69137;50.878;8.050;2023-11-18T12:49:46;13.05;;;5.85;;
79670;SDS011;69137;50.878;8.050;2023-11-18T12:52:19;8.88;;;5.32;;
79670;SDS011;69137;50.878;8.050;2023-11-18T12:54:47;11.82;;;6.10;;
79670;SDS011;69137;50.878;8.050;2023-11-18T12:57:16;9.85;;;4.80;;
79670;SDS011;69137;50.878;8.050;2023-11-18T12:59:43;11.55;;;5.72;;
79670;SDS011;69137;50.878;8.050;2023-11-18T13:02:09;11.73;;;5.68;;
79670;SDS011;69137;50.878;8.050;2023-11-18T13:04:43;12.05;;;5.07;;
79670;SDS011;69137;50.878;8.050;2023-11-18T13:07:12;10.95;;;6.13;;
79670;SDS011;69137;50.878;8.050;2023-11-18T13:09:38;13.85;;;5.97;;
79670;SDS011;69137;50.878;8.050;2023-11-18T13:12:06;15.85;;;6.80;;
79670;SDS011;69137;50.878;8.050;2023-11-18T13:14:34;12.50;;;6.03;;
79670;SDS011;69137;50.878;8.050;2023-11-18T13:17:04;12.40;;;5.63;;
79670;SDS011;69137;50.878;8.050;2023-11-18T13:19:34;11.30;;;5.45;;
79670;SDS011;69137;50.878;8.050;2023-11-18T13:22:04;10.50;;;5.65;;
79670;SDS011;69137;50.878;8.050;2023-11-18T13:24:37;10.40;;;4.85;;
79670;SDS011;69137;50.878;8.050;2023-11-18T13:27:09;14.30;;;6.10;;
79670;SDS011;69137;50.878;8.050;2023-11-18T13:29:36;11.27;;;5.55;;
79670;SDS011;69137;50.878;8.050;2023-11-18T13:32:06;12.20;;;5.22;;
79670;SDS011;69137;50.878;8.050;2023-11-18T13:34:33;10.88;;;5.38;;
79670;SDS011;69137;50.878;8.050;2023-11-18T13:37:02;10.70;;;4.90;;
79670;SDS011;69137;50.878;8.050;2023-11-18T13:39:29;12.15;;;5.70;;
79670;SDS011;69137;50.878;8.050;2023-11-18T13:41:56;11.10;;;4.63;;
79670;SDS011;69137;50.878;8.050;2023-11-18T13:44:38;8.10;;;4.82;;
79670;SDS011;69137;50.878;8.050;2023-11-18T13:47:06;9.13;;;5.28;;
79670;SDS011;69137;50.878;8.050;2023-11-18T13:49:36;11.45;;;5.15;;
79670;SDS011;69137;50.878;8.050;2023-11-18T13:52:05;9.88;;;5.38;;
79670;SDS011;69137;50.878;8.050;2023-11-18T13:54:33;12.98;;;6.05;;
79670;SDS011;69137;50.878;8.050;2023-11-18T13:57:00;10.93;;;4.90;;
79670;SDS011;69137;50.878;8.050;2023-11-18T13:59:28;7.53;;;4.20;;
79670;SDS011;69137;50.878;8.050;2023-11-18T14:01:54;6.55;;;3.45;;
79670;SDS011;69137;50.878;8.050;2023-11-18T14:04:29;7.38;;;3.83;;
79670;SDS011;69137;50.878;8.050;2023-11-18T14:06:57;4.38;;;2.72;;
79670;SDS011;69137;50.878;8.050;2023-11-18T14:09:24;5.20;;;3.20;;
79670;SDS011;69137;50.878;8.050;2023-11-18T14:11:55;6.82;;;3.97;;
79670;SDS011;69137;50.878;8.050;2023-11-18T14:14:21;6.53;;;3.72;;
79670;SDS011;69137;50.878;8.050;2023-11-18T14:16:52;6.85;;;3.72;;
79670;SDS011;69137;50.878;8.050;2023-11-18T14:19:26;5.32;;;3.00;;
79670;SDS011;69137;50.878;8.050;2023-11-18T14:21:55;6.57;;;3.85;;
79670;SDS011;69137;50.878;8.050;2023-11-18T14:24:21;11.95;;;5.25;;
79670;SDS011;69137;50.878;8.050;2023-11-18T14:26:53;7.20;;;5.05;;
79670;SDS011;69137;50.878;8.050;2023-11-18T14:29:19;7.78;;;3.58;;
79670;SDS011;69137;50.878;8.050;2023-11-18T14:31:45;6.60;;;3.65;;
79670;SDS011;69137;50.878;8.050;2023-11-18T14:34:10;8.23;;;4.05;;
79670;SDS011;69137;50.878;8.050;2023-11-18T14:36:36;6.93;;;4.45;;
79670;SDS011;69137;50.878;8.050;2023-11-18T14:39:03;9.15;;;3.58;;
79670;SDS011;69137;50.878;8.050;2023-11-18T14:41:29;5.90;;;3.78;;
79670;SDS011;69137;50.878;8.050;2023-11-18T14:43:56;7.65;;;5.05;;
79670;SDS011;69137;50.878;8.050;2023-11-18T14:46:22;7.15;;;3.85;;
79670;SDS011;69137;50.878;8.050;2023-11-18T14:48:48;8.98;;;3.58;;
79670;SDS011;69137;50.878;8.050;2023-11-18T14:51:14;9.80;;;4.30;;
79670;SDS011;69137;50.878;8.050;2023-11-18T14:53:39;5.82;;;3.45;;
79670;SDS011;69137;50.878;8.050;2023-11-18T14:56:05;10.73;;;4.13;;
79670;SDS011;69137;50.878;8.050;2023-11-18T14:58:34;7.28;;;4.40;;
79670;SDS011;69137;50.878;8.050;2023-11-18T15:01:00;9.20;;;4.20;;
79670;SDS011;69137;50.878;8.050;2023-11-18T15:03:26;5.82;;;3.70;;
79670;SDS011;69137;50.878;8.050;2023-11-18T15:05:52;8.23;;;4.47;;
79670;SDS011;69137;50.878;8.050;2023-11-18T15:08:17;5.97;;;4.20;;